sensor_id;sensor_type;location;lat;lon;timestamp;P1;durP1;ratioP1;P2;durP2;ratioP2
19747;SDS011;10032;51.386;12.516;2022-10-16T00:00:43;5.15;;;1.00;;
19747;SDS011;10032;51.386;12.516;2022-10-16T00:03:09;1.17;;;1.08;;
19747;SDS011;10032;51.386;12.516;2022-10-16T00:05:39;1.33;;;1.23;;
19747;SDS011;10032;51.386;12.516;2022-10-16T00:08:06;0.95;;;0.90;;
19747;SDS011;10032;51.386;12.516;2022-10-16T00:10:32;1.10;;;1.05;;
19747;SDS011;10032;51.386;12.516;2022-10-16T00:12:58;1.92;;;0.93;;
19747;SDS011;10032;51.386;12.516;2022-10-16T00:15:24;0.90;;;0.90;;
19747;SDS011;10032;51.386;12.516;2022-10-16T00:17:49;1.00;;;0.93;;
19747;SDS011;10032;51.386;12.516;2022-10-16T00:20:14;1.58;;;1.40;;
19747;SDS011;10032;51.386;12.516;2022-10-16T00:22:40;1.45;;;1.35;;
19747;SDS011;10032;51.386;12.516;2022-10-16T00:25:05;1.95;;;1.70;;
19747;SDS011;10032;51.386;12.516;2022-10-16T00:27:31;1.40;;;1.30;;
19747;SDS011;10032;51.386;12.516;2022-10-16T00:29:56;1.52;;;1.42;;
19747;SDS011;10032;51.386;12.516;2022-10-16T00:32:21;1.40;;;1.20;;
19747;SDS011;10032;51.386;12.516;2022-10-16T00:34:47;1.20;;;1.10;;
19747;SDS011;10032;51.386;12.516;2022-10-16T00:37:13;1.05;;;1.00;;
19747;SDS011;10032;51.386;12.516;2022-10-16T00:39:38;1.25;;;1.15;;
19747;SDS011;10032;51.386;12.516;2022-10-16T00:42:09;0.98;;;0.98;;
19747;SDS011;10032;51.386;12.516;2022-10-16T00:47:19;0.98;;;0.98;;
19747;SDS011;10032;51.386;12.516;2022-10-16T00:49:49;1.52;;;1.42;;
19747;SDS011;10032;51.386;12.516;2022-10-16T00:52:18;1.30;;;1.20;;
19747;SDS011;10032;51.386;12.516;2022-10-16T00:54:44;1.13;;;1.02;;
19747;SDS011;10032;51.386;12.516;2022-10-16T00:57:12;1.35;;;1.00;;
19747;SDS011;10032;51.386;12.516;2022-10-16T00:59:38;0.80;;;0.80;;
19747;SDS011;10032;51.386;12.516;2022-10-16T01:02:06;2.05;;;1.00;;
19747;SDS011;10032;51.386;12.516;2022-10-16T01:04:40;1.00;;;0.90;;
19747;SDS011;10032;51.386;12.516;2022-10-16T01:07:15;3.38;;;1.35;;
19747;SDS011;10032;51.386;12.516;2022-10-16T01:15:31;1.10;;;1.00;;
19747;SDS011;10032;51.386;12.516;2022-10-16T01:18:14;1.30;;;1.20;;
19747;SDS011;10032;51.386;12.516;2022-10-16T01:23:27;0.85;;;0.65;;
19747;SDS011;10032;51.386;12.516;2022-10-16T01:28:55;0.70;;;0.70;;
19747;SDS011;10032;51.386;12.516;2022-10-16T01:31:29;1.92;;;1.00;;
19747;SDS011;10032;51.386;12.516;2022-10-16T01:36:49;2.25;;;1.00;;
19747;SDS011;10032;51.386;12.516;2022-10-16T01:39:21;1.10;;;1.00;;
19747;SDS011;10032;51.386;12.516;2022-10-16T01:44:52;1.35;;;1.25;;
19747;SDS011;10032;51.386;12.516;2022-10-16T01:47:18;0.80;;;0.80;;
19747;SDS011;10032;51.386;12.516;2022-10-16T01:49:49;1.08;;;0.98;;
19747;SDS011;10032;51.386;12.516;2022-10-16T01:52:18;1.00;;;1.00;;
19747;SDS011;10032;51.386;12.516;2022-10-16T01:54:49;1.60;;;1.00;;
19747;SDS011;10032;51.386;12.516;2022-10-16T01:57:17;1.27;;;1.00;;
19747;SDS011;10032;51.386;12.516;2022-10-16T01:59:44;1.08;;;0.98;;
19747;SDS011;10032;51.386;12.516;2022-10-16T02:02:13;1.20;;;0.73;;
19747;SDS011;10032;51.386;12.516;2022-10-16T02:07:11;0.95;;;0.90;;
19747;SDS011;10032;51.386;12.516;2022-10-16T02:09:37;0.82;;;0.75;;
19747;SDS011;10032;51.386;12.516;2022-10-16T02:12:05;1.10;;;0.95;;
19747;SDS011;10032;51.386;12.516;2022-10-16T02:14:37;1.38;;;1.00;;
19747;SDS011;10032;51.386;12.516;2022-10-16T02:17:10;1.23;;;0.88;;
19747;SDS011;10032;51.386;12.516;2022-10-16T02:19:37;0.88;;;0.80;;
19747;SDS011;10032;51.386;12.516;2022-10-16T02:22:03;1.30;;;1.20;;
19747;SDS011;10032;51.386;12.516;2022-10-16T02:27:05;1.05;;;0.82;;
19747;SDS011;10032;51.386;12.516;2022-10-16T02:29:40;1.75;;;0.63;;
19747;SDS011;10032;51.386;12.516;2022-10-16T02:32:10;0.82;;;0.73;;
19747;SDS011;10032;51.386;12.516;2022-10-16T02:34:38;0.77;;;0.73;;
19747;SDS011;10032;51.386;12.516;2022-10-16T02:37:05;1.02;;;1.00;;
19747;SDS011;10032;51.386;12.516;2022-10-16T02:39:31;0.70;;;0.65;;
19747;SDS011;10032;51.386;12.516;2022-10-16T02:41:57;0.70;;;0.70;;
19747;SDS011;10032;51.386;12.516;2022-10-16T02:44:23;1.05;;;0.82;;
19747;SDS011;10032;51.386;12.516;2022-10-16T02:46:48;0.60;;;0.60;;
19747;SDS011;10032;51.386;12.516;2022-10-16T02:49:13;0.85;;;0.80;;
19747;SDS011;10032;51.386;12.516;2022-10-16T02:51:39;1.08;;;1.00;;
19747;SDS011;10032;51.386;12.516;2022-10-16T02:54:04;1.65;;;0.85;;
19747;SDS011;10032;51.386;12.516;2022-10-16T02:56:29;0.75;;;0.75;;
19747;SDS011;10032;51.386;12.516;2022-10-16T02:58:55;0.60;;;0.60;;
19747;SDS011;10032;51.386;12.516;2022-10-16T03:01:21;0.85;;;0.85;;
19747;SDS011;10032;51.386;12.516;2022-10-16T03:03:47;0.98;;;0.90;;
19747;SDS011;10032;51.386;12.516;2022-10-16T03:06:13;2.25;;;0.98;;
19747;SDS011;10032;51.386;12.516;2022-10-16T03:08:38;0.80;;;0.80;;
19747;SDS011;10032;51.386;12.516;2022-10-16T03:11:04;1.38;;;1.00;;
19747;SDS011;10032;51.386;12.516;2022-10-16T03:13:29;0.93;;;0.93;;
19747;SDS011;10032;51.386;12.516;2022-10-16T03:15:55;1.00;;;0.90;;
19747;SDS011;10032;51.386;12.516;2022-10-16T03:18:20;0.88;;;0.88;;
19747;SDS011;10032;51.386;12.516;2022-10-16T03:20:46;0.90;;;0.90;;
19747;SDS011;10032;51.386;12.516;2022-10-16T03:23:11;2.03;;;1.10;;
19747;SDS011;10032;51.386;12.516;2022-10-16T03:25:36;1.35;;;0.90;;
19747;SDS011;10032;51.386;12.516;2022-10-16T03:28:02;2.15;;;1.10;;
19747;SDS011;10032;51.386;12.516;2022-10-16T03:30:28;1.00;;;1.00;;
19747;SDS011;10032;51.386;12.516;2022-10-16T03:32:53;1.25;;;1.15;;
19747;SDS011;10032;51.386;12.516;2022-10-16T03:35:22;1.25;;;1.15;;
19747;SDS011;10032;51.386;12.516;2022-10-16T03:37:49;0.80;;;0.80;;
19747;SDS011;10032;51.386;12.516;2022-10-16T03:40:15;0.80;;;0.80;;
19747;SDS011;10032;51.386;12.516;2022-10-16T03:42:44;0.88;;;0.88;;
19747;SDS011;10032;51.386;12.516;2022-10-16T03:45:10;0.90;;;0.90;;
19747;SDS011;10032;51.386;12.516;2022-10-16T03:47:36;1.15;;;1.05;;
19747;SDS011;10032;51.386;12.516;2022-10-16T03:50:02;1.02;;;1.02;;
19747;SDS011;10032;51.386;12.516;2022-10-16T03:52:27;1.52;;;1.25;;
19747;SDS011;10032;51.386;12.516;2022-10-16T03:54:53;1.38;;;1.20;;
19747;SDS011;10032;51.386;12.516;2022-10-16T03:57:18;2.17;;;1.08;;
19747;SDS011;10032;51.386;12.516;2022-10-16T03:59:45;1.70;;;1.20;;
19747;SDS011;10032;51.386;12.516;2022-10-16T04:02:11;1.33;;;1.23;;
19747;SDS011;10032;51.386;12.516;2022-10-16T04:04:36;1.20;;;1.10;;
19747;SDS011;10032;51.386;12.516;2022-10-16T04:07:01;0.80;;;0.80;;
19747;SDS011;10032;51.386;12.516;2022-10-16T04:09:27;1.10;;;1.10;;
19747;SDS011;10032;51.386;12.516;2022-10-16T04:11:52;1.13;;;1.08;;
19747;SDS011;10032;51.386;12.516;2022-10-16T04:14:18;1.08;;;0.98;;
19747;SDS011;10032;51.386;12.516;2022-10-16T04:16:43;1.00;;;1.00;;
19747;SDS011;10032;51.386;12.516;2022-10-16T04:19:09;1.40;;;1.20;;
19747;SDS011;10032;51.386;12.516;2022-10-16T04:21:35;1.27;;;1.08;;
19747;SDS011;10032;51.386;12.516;2022-10-16T04:24:01;1.13;;;1.02;;
19747;SDS011;10032;51.386;12.516;2022-10-16T04:26:27;3.05;;;1.45;;
19747;SDS011;10032;51.386;12.516;2022-10-16T04:28:52;1.35;;;0.88;;
19747;SDS011;10032;51.386;12.516;2022-10-16T04:31:18;0.85;;;0.85;;
19747;SDS011;10032;51.386;12.516;2022-10-16T04:33:43;1.33;;;1.23;;
19747;SDS011;10032;51.386;12.516;2022-10-16T04:36:09;1.30;;;0.98;;
19747;SDS011;10032;51.386;12.516;2022-10-16T04:38:34;1.40;;;1.30;;
19747;SDS011;10032;51.386;12.516;2022-10-16T04:40:59;1.65;;;1.30;;
19747;SDS011;10032;51.386;12.516;2022-10-16T04:43:25;1.20;;;1.10;;
19747;SDS011;10032;51.386;12.516;2022-10-16T04:45:51;1.25;;;1.00;;
19747;SDS011;10032;51.386;12.516;2022-10-16T04:48:17;1.38;;;0.93;;
19747;SDS011;10032;51.386;12.516;2022-10-16T04:50:43;1.20;;;1.20;;
19747;SDS011;10032;51.386;12.516;2022-10-16T04:53:08;1.75;;;1.00;;
19747;SDS011;10032;51.386;12.516;2022-10-16T04:55:34;1.42;;;1.33;;
19747;SDS011;10032;51.386;12.516;2022-10-16T04:57:59;1.20;;;1.10;;
19747;SDS011;10032;51.386;12.516;2022-10-16T05:00:24;1.30;;;1.20;;
19747;SDS011;10032;51.386;12.516;2022-10-16T05:02:50;1.17;;;1.10;;
19747;SDS011;10032;51.386;12.516;2022-10-16T05:05:16;1.42;;;1.10;;
19747;SDS011;10032;51.386;12.516;2022-10-16T05:07:41;1.10;;;1.00;;
19747;SDS011;10032;51.386;12.516;2022-10-16T05:10:06;1.33;;;1.23;;
19747;SDS011;10032;51.386;12.516;2022-10-16T05:12:32;1.27;;;1.20;;
19747;SDS011;10032;51.386;12.516;2022-10-16T05:14:58;1.58;;;0.95;;
19747;SDS011;10032;51.386;12.516;2022-10-16T05:17:24;1.33;;;1.15;;
19747;SDS011;10032;51.386;12.516;2022-10-16T05:19:50;1.25;;;1.10;;
19747;SDS011;10032;51.386;12.516;2022-10-16T05:22:16;1.50;;;1.40;;
19747;SDS011;10032;51.386;12.516;2022-10-16T05:24:41;1.40;;;1.30;;
19747;SDS011;10032;51.386;12.516;2022-10-16T05:27:07;1.10;;;1.10;;
19747;SDS011;10032;51.386;12.516;2022-10-16T05:29:32;0.98;;;0.90;;
19747;SDS011;10032;51.386;12.516;2022-10-16T05:31:57;2.00;;;1.23;;
19747;SDS011;10032;51.386;12.516;2022-10-16T05:34:23;1.40;;;1.30;;
19747;SDS011;10032;51.386;12.516;2022-10-16T05:36:48;1.42;;;1.33;;
19747;SDS011;10032;51.386;12.516;2022-10-16T05:39:14;3.33;;;1.48;;
19747;SDS011;10032;51.386;12.516;2022-10-16T05:41:40;1.15;;;1.15;;
19747;SDS011;10032;51.386;12.516;2022-10-16T05:44:06;1.00;;;1.00;;
19747;SDS011;10032;51.386;12.516;2022-10-16T05:46:32;1.40;;;1.30;;
19747;SDS011;10032;51.386;12.516;2022-10-16T05:48:57;0.95;;;0.88;;
19747;SDS011;10032;51.386;12.516;2022-10-16T05:51:23;1.40;;;1.17;;
19747;SDS011;10032;51.386;12.516;2022-10-16T05:53:48;1.10;;;1.10;;
19747;SDS011;10032;51.386;12.516;2022-10-16T05:56:14;1.27;;;1.20;;
19747;SDS011;10032;51.386;12.516;2022-10-16T05:58:40;1.20;;;1.10;;
19747;SDS011;10032;51.386;12.516;2022-10-16T06:01:06;5.95;;;1.40;;
19747;SDS011;10032;51.386;12.516;2022-10-16T06:03:37;1.42;;;1.33;;
19747;SDS011;10032;51.386;12.516;2022-10-16T06:06:16;1.55;;;1.00;;
19747;SDS011;10032;51.386;12.516;2022-10-16T06:08:44;1.40;;;1.30;;
19747;SDS011;10032;51.386;12.516;2022-10-16T06:11:11;1.75;;;1.15;;
19747;SDS011;10032;51.386;12.516;2022-10-16T06:13:38;1.27;;;1.17;;
19747;SDS011;10032;51.386;12.516;2022-10-16T06:16:06;1.30;;;1.20;;
19747;SDS011;10032;51.386;12.516;2022-10-16T06:18:35;0.85;;;0.85;;
19747;SDS011;10032;51.386;12.516;2022-10-16T06:21:06;1.20;;;1.20;;
19747;SDS011;10032;51.386;12.516;2022-10-16T06:23:32;1.20;;;1.10;;
19747;SDS011;10032;51.386;12.516;2022-10-16T06:26:05;0.70;;;0.70;;
19747;SDS011;10032;51.386;12.516;2022-10-16T06:28:34;1.55;;;1.00;;
19747;SDS011;10032;51.386;12.516;2022-10-16T06:31:00;1.00;;;1.00;;
19747;SDS011;10032;51.386;12.516;2022-10-16T06:33:26;0.90;;;0.90;;
19747;SDS011;10032;51.386;12.516;2022-10-16T06:35:51;1.35;;;1.25;;
19747;SDS011;10032;51.386;12.516;2022-10-16T06:38:17;0.93;;;0.93;;
19747;SDS011;10032;51.386;12.516;2022-10-16T06:40:42;1.52;;;1.42;;
19747;SDS011;10032;51.386;12.516;2022-10-16T06:43:07;1.10;;;0.98;;
19747;SDS011;10032;51.386;12.516;2022-10-16T06:45:33;1.20;;;1.17;;
19747;SDS011;10032;51.386;12.516;2022-10-16T06:47:58;1.17;;;1.08;;
19747;SDS011;10032;51.386;12.516;2022-10-16T06:50:23;2.25;;;1.17;;
19747;SDS011;10032;51.386;12.516;2022-10-16T06:52:49;1.23;;;1.13;;
19747;SDS011;10032;51.386;12.516;2022-10-16T06:55:14;1.98;;;1.20;;
19747;SDS011;10032;51.386;12.516;2022-10-16T06:57:40;1.40;;;1.30;;
19747;SDS011;10032;51.386;12.516;2022-10-16T07:00:05;1.13;;;1.05;;
19747;SDS011;10032;51.386;12.516;2022-10-16T07:02:31;3.33;;;1.20;;
19747;SDS011;10032;51.386;12.516;2022-10-16T07:04:56;1.00;;;1.00;;
19747;SDS011;10032;51.386;12.516;2022-10-16T07:07:22;1.60;;;1.50;;
19747;SDS011;10032;51.386;12.516;2022-10-16T07:09:49;1.60;;;1.50;;
19747;SDS011;10032;51.386;12.516;2022-10-16T07:12:15;1.85;;;1.20;;
19747;SDS011;10032;51.386;12.516;2022-10-16T07:14:40;0.80;;;0.80;;
19747;SDS011;10032;51.386;12.516;2022-10-16T07:17:05;1.13;;;1.13;;
19747;SDS011;10032;51.386;12.516;2022-10-16T07:19:31;2.05;;;1.08;;
19747;SDS011;10032;51.386;12.516;2022-10-16T07:21:56;3.72;;;1.98;;
19747;SDS011;10032;51.386;12.516;2022-10-16T07:24:23;1.90;;;1.60;;
19747;SDS011;10032;51.386;12.516;2022-10-16T07:26:48;2.53;;;1.70;;
19747;SDS011;10032;51.386;12.516;2022-10-16T07:29:17;1.45;;;1.13;;
19747;SDS011;10032;51.386;12.516;2022-10-16T07:31:45;1.70;;;1.38;;
19747;SDS011;10032;51.386;12.516;2022-10-16T07:34:11;1.42;;;1.30;;
19747;SDS011;10032;51.386;12.516;2022-10-16T07:36:39;2.35;;;1.40;;
19747;SDS011;10032;51.386;12.516;2022-10-16T07:39:04;2.92;;;1.40;;
19747;SDS011;10032;51.386;12.516;2022-10-16T07:41:30;2.47;;;1.27;;
19747;SDS011;10032;51.386;12.516;2022-10-16T07:43:57;1.33;;;1.17;;
19747;SDS011;10032;51.386;12.516;2022-10-16T07:46:25;2.10;;;1.23;;
19747;SDS011;10032;51.386;12.516;2022-10-16T07:48:51;1.98;;;1.30;;
19747;SDS011;10032;51.386;12.516;2022-10-16T07:51:17;1.35;;;1.25;;
19747;SDS011;10032;51.386;12.516;2022-10-16T07:53:45;1.20;;;1.00;;
19747;SDS011;10032;51.386;12.516;2022-10-16T07:56:12;0.60;;;0.60;;
19747;SDS011;10032;51.386;12.516;2022-10-16T07:58:37;1.27;;;1.15;;
19747;SDS011;10032;51.386;12.516;2022-10-16T08:01:07;1.63;;;0.80;;
19747;SDS011;10032;51.386;12.516;2022-10-16T08:03:34;1.27;;;0.77;;
19747;SDS011;10032;51.386;12.516;2022-10-16T08:06:00;0.80;;;0.80;;
19747;SDS011;10032;51.386;12.516;2022-10-16T08:08:27;0.70;;;0.70;;
19747;SDS011;10032;51.386;12.516;2022-10-16T08:10:53;0.80;;;0.80;;
19747;SDS011;10032;51.386;12.516;2022-10-16T08:13:18;0.85;;;0.85;;
19747;SDS011;10032;51.386;12.516;2022-10-16T08:15:44;0.52;;;0.52;;
19747;SDS011;10032;51.386;12.516;2022-10-16T08:18:10;0.52;;;0.52;;
19747;SDS011;10032;51.386;12.516;2022-10-16T08:20:37;0.50;;;0.50;;
19747;SDS011;10032;51.386;12.516;2022-10-16T08:23:03;1.25;;;0.50;;
19747;SDS011;10032;51.386;12.516;2022-10-16T08:25:29;0.30;;;0.30;;
19747;SDS011;10032;51.386;12.516;2022-10-16T08:27:55;0.30;;;0.30;;
19747;SDS011;10032;51.386;12.516;2022-10-16T08:30:21;0.98;;;0.80;;
19747;SDS011;10032;51.386;12.516;2022-10-16T08:32:47;0.52;;;0.52;;
19747;SDS011;10032;51.386;12.516;2022-10-16T08:35:12;0.55;;;0.50;;
19747;SDS011;10032;51.386;12.516;2022-10-16T08:37:39;0.88;;;0.30;;
19747;SDS011;10032;51.386;12.516;2022-10-16T08:40:06;0.30;;;0.30;;
19747;SDS011;10032;51.386;12.516;2022-10-16T08:50:42;0.60;;;0.60;;
19747;SDS011;10032;51.386;12.516;2022-10-16T08:53:10;0.50;;;0.50;;
19747;SDS011;10032;51.386;12.516;2022-10-16T08:55:45;2.45;;;0.93;;
19747;SDS011;10032;51.386;12.516;2022-10-16T08:58:18;0.40;;;0.40;;
19747;SDS011;10032;51.386;12.516;2022-10-16T09:00:46;1.00;;;0.60;;
19747;SDS011;10032;51.386;12.516;2022-10-16T09:06:14;0.40;;;0.40;;
19747;SDS011;10032;51.386;12.516;2022-10-16T09:12:00;0.50;;;0.50;;
19747;SDS011;10032;51.386;12.516;2022-10-16T09:14:51;1.05;;;0.65;;
19747;SDS011;10032;51.386;12.516;2022-10-16T09:23:09;0.30;;;0.30;;
19747;SDS011;10032;51.386;12.516;2022-10-16T09:25:39;0.40;;;0.40;;
19747;SDS011;10032;51.386;12.516;2022-10-16T09:28:10;1.13;;;0.60;;
19747;SDS011;10032;51.386;12.516;2022-10-16T09:30:35;0.85;;;0.73;;
19747;SDS011;10032;51.386;12.516;2022-10-16T09:33:04;0.50;;;0.50;;
19747;SDS011;10032;51.386;12.516;2022-10-16T09:35:32;0.50;;;0.50;;
19747;SDS011;10032;51.386;12.516;2022-10-16T09:38:01;0.73;;;0.30;;
19747;SDS011;10032;51.386;12.516;2022-10-16T09:40:34;0.60;;;0.60;;
19747;SDS011;10032;51.386;12.516;2022-10-16T09:45:31;0.50;;;0.50;;
19747;SDS011;10032;51.386;12.516;2022-10-16T09:47:56;0.55;;;0.55;;
19747;SDS011;10032;51.386;12.516;2022-10-16T09:50:25;0.60;;;0.60;;
19747;SDS011;10032;51.386;12.516;2022-10-16T09:53:02;1.00;;;0.75;;
19747;SDS011;10032;51.386;12.516;2022-10-16T09:55:35;3.85;;;1.85;;
19747;SDS011;10032;51.386;12.516;2022-10-16T09:58:01;1.70;;;1.30;;
19747;SDS011;10032;51.386;12.516;2022-10-16T10:00:26;0.75;;;0.75;;
19747;SDS011;10032;51.386;12.516;2022-10-16T10:02:52;1.38;;;1.00;;
19747;SDS011;10032;51.386;12.516;2022-10-16T10:05:20;1.45;;;0.98;;
19747;SDS011;10032;51.386;12.516;2022-10-16T10:08:00;1.70;;;1.25;;
19747;SDS011;10032;51.386;12.516;2022-10-16T10:10:32;1.73;;;1.13;;
19747;SDS011;10032;51.386;12.516;2022-10-16T10:13:01;1.70;;;1.42;;
19747;SDS011;10032;51.386;12.516;2022-10-16T10:15:27;1.92;;;1.00;;
19747;SDS011;10032;51.386;12.516;2022-10-16T10:17:58;1.05;;;1.00;;
19747;SDS011;10032;51.386;12.516;2022-10-16T10:20:31;0.60;;;0.60;;
19747;SDS011;10032;51.386;12.516;2022-10-16T10:23:19;0.50;;;0.50;;
19747;SDS011;10032;51.386;12.516;2022-10-16T10:31:24;2.25;;;0.80;;
19747;SDS011;10032;51.386;12.516;2022-10-16T10:37:23;0.90;;;0.82;;
19747;SDS011;10032;51.386;12.516;2022-10-16T10:39:58;4.10;;;0.85;;
19747;SDS011;10032;51.386;12.516;2022-10-16T11:01:16;0.90;;;0.90;;
19747;SDS011;10032;51.386;12.516;2022-10-16T11:04:04;0.77;;;0.77;;
19747;SDS011;10032;51.386;12.516;2022-10-16T11:06:49;0.95;;;0.95;;
19747;SDS011;10032;51.386;12.516;2022-10-16T11:09:28;1.30;;;1.20;;
19747;SDS011;10032;51.386;12.516;2022-10-16T11:12:24;0.90;;;0.90;;
19747;SDS011;10032;51.386;12.516;2022-10-16T11:14:56;1.10;;;0.95;;
19747;SDS011;10032;51.386;12.516;2022-10-16T11:17:24;1.10;;;1.00;;
19747;SDS011;10032;51.386;12.516;2022-10-16T11:20:13;0.98;;;0.98;;
19747;SDS011;10032;51.386;12.516;2022-10-16T11:22:46;1.08;;;0.77;;
19747;SDS011;10032;51.386;12.516;2022-10-16T11:25:20;0.77;;;0.77;;
19747;SDS011;10032;51.386;12.516;2022-10-16T11:27:54;1.00;;;1.00;;
19747;SDS011;10032;51.386;12.516;2022-10-16T11:30:27;1.13;;;0.80;;
19747;SDS011;10032;51.386;12.516;2022-10-16T11:44:19;2.20;;;1.20;;
19747;SDS011;10032;51.386;12.516;2022-10-16T11:46:58;1.30;;;1.20;;
19747;SDS011;10032;51.386;12.516;2022-10-16T11:49:34;0.95;;;0.95;;
19747;SDS011;10032;51.386;12.516;2022-10-16T11:57:17;1.25;;;1.15;;
19747;SDS011;10032;51.386;12.516;2022-10-16T12:02:26;1.08;;;1.08;;
19747;SDS011;10032;51.386;12.516;2022-10-16T12:05:03;1.20;;;1.10;;
19747;SDS011;10032;51.386;12.516;2022-10-16T12:07:39;0.93;;;0.93;;
19747;SDS011;10032;51.386;12.516;2022-10-16T12:10:19;1.20;;;1.13;;
19747;SDS011;10032;51.386;12.516;2022-10-16T12:12:51;0.93;;;0.93;;
19747;SDS011;10032;51.386;12.516;2022-10-16T12:15:22;1.17;;;1.08;;
19747;SDS011;10032;51.386;12.516;2022-10-16T12:17:49;1.20;;;1.10;;
19747;SDS011;10032;51.386;12.516;2022-10-16T12:20:26;2.40;;;1.25;;
19747;SDS011;10032;51.386;12.516;2022-10-16T12:22:59;1.25;;;1.25;;
19747;SDS011;10032;51.386;12.516;2022-10-16T12:25:28;1.30;;;1.20;;
19747;SDS011;10032;51.386;12.516;2022-10-16T12:30:23;1.27;;;1.17;;
19747;SDS011;10032;51.386;12.516;2022-10-16T12:32:55;1.25;;;1.17;;
19747;SDS011;10032;51.386;12.516;2022-10-16T12:35:24;1.00;;;1.00;;
19747;SDS011;10032;51.386;12.516;2022-10-16T12:37:52;0.90;;;0.90;;
19747;SDS011;10032;51.386;12.516;2022-10-16T12:42:57;4.32;;;1.20;;
19747;SDS011;10032;51.386;12.516;2022-10-16T12:45:30;1.17;;;1.05;;
19747;SDS011;10032;51.386;12.516;2022-10-16T12:48:00;1.45;;;1.35;;
19747;SDS011;10032;51.386;12.516;2022-10-16T12:50:37;1.38;;;1.38;;
19747;SDS011;10032;51.386;12.516;2022-10-16T12:53:04;1.20;;;1.20;;
19747;SDS011;10032;51.386;12.516;2022-10-16T12:55:47;1.40;;;1.30;;
19747;SDS011;10032;51.386;12.516;2022-10-16T13:06:45;0.90;;;0.90;;
19747;SDS011;10032;51.386;12.516;2022-10-16T13:12:05;1.00;;;0.90;;
19747;SDS011;10032;51.386;12.516;2022-10-16T13:17:35;0.77;;;0.77;;
19747;SDS011;10032;51.386;12.516;2022-10-16T13:20:18;1.08;;;1.00;;
19747;SDS011;10032;51.386;12.516;2022-10-16T13:28:08;1.05;;;1.05;;
19747;SDS011;10032;51.386;12.516;2022-10-16T13:30:39;1.55;;;1.40;;
19747;SDS011;10032;51.386;12.516;2022-10-16T13:33:13;2.05;;;1.40;;
19747;SDS011;10032;51.386;12.516;2022-10-16T13:35:49;2.05;;;1.50;;
19747;SDS011;10032;51.386;12.516;2022-10-16T13:38:26;0.98;;;0.98;;
19747;SDS011;10032;51.386;12.516;2022-10-16T13:41:13;2.55;;;1.40;;
19747;SDS011;10032;51.386;12.516;2022-10-16T13:43:41;1.88;;;1.13;;
19747;SDS011;10032;51.386;12.516;2022-10-16T13:46:17;1.35;;;1.25;;
19747;SDS011;10032;51.386;12.516;2022-10-16T13:48:55;1.08;;;1.05;;
19747;SDS011;10032;51.386;12.516;2022-10-16T13:51:25;2.70;;;1.15;;
19747;SDS011;10032;51.386;12.516;2022-10-16T13:53:51;1.10;;;1.02;;
19747;SDS011;10032;51.386;12.516;2022-10-16T13:56:21;1.20;;;1.10;;
19747;SDS011;10032;51.386;12.516;2022-10-16T13:59:01;1.58;;;1.40;;
19747;SDS011;10032;51.386;12.516;2022-10-16T14:01:28;1.02;;;1.00;;
19747;SDS011;10032;51.386;12.516;2022-10-16T14:04:06;0.80;;;0.80;;
19747;SDS011;10032;51.386;12.516;2022-10-16T14:06:35;0.98;;;0.90;;
19747;SDS011;10032;51.386;12.516;2022-10-16T14:09:07;1.25;;;1.00;;
19747;SDS011;10032;51.386;12.516;2022-10-16T14:11:42;0.80;;;0.80;;
19747;SDS011;10032;51.386;12.516;2022-10-16T14:14:11;0.90;;;0.90;;
19747;SDS011;10032;51.386;12.516;2022-10-16T14:16:37;0.90;;;0.90;;
19747;SDS011;10032;51.386;12.516;2022-10-16T14:19:13;1.17;;;1.08;;
19747;SDS011;10032;51.386;12.516;2022-10-16T14:21:45;1.08;;;0.90;;
19747;SDS011;10032;51.386;12.516;2022-10-16T14:24:14;1.10;;;1.02;;
19747;SDS011;10032;51.386;12.516;2022-10-16T14:27:20;1.38;;;1.25;;
19747;SDS011;10032;51.386;12.516;2022-10-16T14:30:05;1.00;;;0.90;;
19747;SDS011;10032;51.386;12.516;2022-10-16T14:32:33;0.90;;;0.90;;
19747;SDS011;10032;51.386;12.516;2022-10-16T14:34:59;2.00;;;0.77;;
19747;SDS011;10032;51.386;12.516;2022-10-16T14:37:25;1.13;;;1.00;;
19747;SDS011;10032;51.386;12.516;2022-10-16T14:39:53;0.90;;;0.90;;
19747;SDS011;10032;51.386;12.516;2022-10-16T14:42:20;1.52;;;0.90;;
19747;SDS011;10032;51.386;12.516;2022-10-16T14:44:51;1.30;;;1.20;;
19747;SDS011;10032;51.386;12.516;2022-10-16T14:47:19;0.90;;;0.90;;
19747;SDS011;10032;51.386;12.516;2022-10-16T14:49:49;1.58;;;1.00;;
19747;SDS011;10032;51.386;12.516;2022-10-16T14:52:15;1.08;;;1.00;;
19747;SDS011;10032;51.386;12.516;2022-10-16T14:54:41;1.83;;;1.00;;
19747;SDS011;10032;51.386;12.516;2022-10-16T14:57:15;1.17;;;1.17;;
19747;SDS011;10032;51.386;12.516;2022-10-16T14:59:43;0.80;;;0.80;;
19747;SDS011;10032;51.386;12.516;2022-10-16T15:04:50;1.45;;;1.30;;
19747;SDS011;10032;51.386;12.516;2022-10-16T15:07:16;0.80;;;0.80;;
19747;SDS011;10032;51.386;12.516;2022-10-16T15:09:41;1.00;;;1.00;;
19747;SDS011;10032;51.386;12.516;2022-10-16T15:12:07;1.70;;;1.58;;
19747;SDS011;10032;51.386;12.516;2022-10-16T15:14:32;0.95;;;0.95;;
19747;SDS011;10032;51.386;12.516;2022-10-16T15:16:58;1.10;;;1.00;;
19747;SDS011;10032;51.386;12.516;2022-10-16T15:19:23;1.58;;;1.48;;
19747;SDS011;10032;51.386;12.516;2022-10-16T15:21:48;1.40;;;1.30;;
19747;SDS011;10032;51.386;12.516;2022-10-16T15:24:14;1.98;;;1.35;;
19747;SDS011;10032;51.386;12.516;2022-10-16T15:26:40;1.13;;;1.02;;
19747;SDS011;10032;51.386;12.516;2022-10-16T15:29:06;0.90;;;0.90;;
19747;SDS011;10032;51.386;12.516;2022-10-16T15:31:31;1.05;;;1.02;;
19747;SDS011;10032;51.386;12.516;2022-10-16T15:33:57;1.23;;;1.20;;
19747;SDS011;10032;51.386;12.516;2022-10-16T15:36:33;1.17;;;0.98;;
19747;SDS011;10032;51.386;12.516;2022-10-16T15:39:02;0.85;;;0.75;;
19747;SDS011;10032;51.386;12.516;2022-10-16T15:41:28;1.55;;;1.45;;
19747;SDS011;10032;51.386;12.516;2022-10-16T15:43:53;1.00;;;0.70;;
19747;SDS011;10032;51.386;12.516;2022-10-16T15:46:20;1.10;;;1.10;;
19747;SDS011;10032;51.386;12.516;2022-10-16T15:48:47;1.33;;;1.23;;
19747;SDS011;10032;51.386;12.516;2022-10-16T15:51:13;1.48;;;1.30;;
19747;SDS011;10032;51.386;12.516;2022-10-16T15:53:39;1.40;;;1.30;;
19747;SDS011;10032;51.386;12.516;2022-10-16T15:56:05;1.42;;;1.17;;
19747;SDS011;10032;51.386;12.516;2022-10-16T15:58:31;5.18;;;3.42;;
19747;SDS011;10032;51.386;12.516;2022-10-16T16:00:57;2.60;;;2.40;;
19747;SDS011;10032;51.386;12.516;2022-10-16T16:03:25;2.40;;;2.20;;
19747;SDS011;10032;51.386;12.516;2022-10-16T16:05:51;1.70;;;1.52;;
19747;SDS011;10032;51.386;12.516;2022-10-16T16:08:17;1.63;;;1.42;;
19747;SDS011;10032;51.386;12.516;2022-10-16T16:10:43;2.10;;;1.70;;
19747;SDS011;10032;51.386;12.516;2022-10-16T16:13:08;2.08;;;1.50;;
19747;SDS011;10032;51.386;12.516;2022-10-16T16:15:33;1.35;;;1.25;;
19747;SDS011;10032;51.386;12.516;2022-10-16T16:17:59;2.80;;;2.20;;
19747;SDS011;10032;51.386;12.516;2022-10-16T16:20:26;2.67;;;1.80;;
19747;SDS011;10032;51.386;12.516;2022-10-16T16:22:52;2.30;;;2.00;;
19747;SDS011;10032;51.386;12.516;2022-10-16T16:25:17;1.70;;;1.48;;
19747;SDS011;10032;51.386;12.516;2022-10-16T16:27:43;1.40;;;1.30;;
19747;SDS011;10032;51.386;12.516;2022-10-16T16:30:09;1.40;;;1.30;;
19747;SDS011;10032;51.386;12.516;2022-10-16T16:32:36;1.88;;;1.60;;
19747;SDS011;10032;51.386;12.516;2022-10-16T16:35:02;2.75;;;1.80;;
19747;SDS011;10032;51.386;12.516;2022-10-16T16:37:27;2.13;;;1.98;;
19747;SDS011;10032;51.386;12.516;2022-10-16T16:39:53;2.17;;;1.98;;
19747;SDS011;10032;51.386;12.516;2022-10-16T16:42:20;3.42;;;2.10;;